Mid Missouri, Missouri
Current Conditions -  °F | °C
As of 2:07 PM on Sunday 23 Nov 2014 (Local Time) from KCOU Reporting Station
Light Rain Light Rain  
Wind Chill: 54°   Ceiling: 400
Heat Index: 54°   Visibility: 2mi
Dew Point: 54°   Wind: 7mph
Humidity: 100%   Direction: 170°S
Pressure: 29.37"   Gusts: NA
Location:  39.02°N, 92.25°W
Report Text: KCOU 232007Z 17006KT 2SM -RA BR BKN004 OVC010 12/12 A2937 RMK AO2 P0002 T01220122 $
Loading
Personal Weather Stations






























Interactive Weather Map New forecast layout! Learn more

10-Day Weather Forecast

Advertisements
Track Severe Weather on mobile